Dades meteomassalio
Diari Summary for Juliol 20, 2017 Units:  Metric    English   Both
« Previous Day
Next Day »
Diari Semanal Mensual Anual Personalitzat
  Maxima: Minima: Mijana:
Temperatura: -17.8 °C -6.6 °C -3.5 °C
Rosada: -17.8 °C -9.8 °C -8.4 °C
Humitat: Humidity % 34 % 60 %
Velocitat del vent: 0 km/h 0 km/h 14.2 km/h
Racha vent: 0 km/h - -
Vent:- - SSW
Pressio: 0 hPa 34144.4 hPa -
Pluja: 0 mm    
Historical Graphs
 
 
Tabular Data for Juliol 20, 2017
Time Temperature Dew Point Pressure Wind Wind Speed Wind Gust Humidity Rainfall Rate (Hourly) solar Conditions
-17.8 °C -17.8 °C 0 hPa Calm     Humidity % 0 mm SolarRadiationWatts/m^2 W/m2 Conditions
00:01 -4.1 °C -7.6 °C 34164.7 hPa Calm     68 % 0 mm 0.0 W/m2 CLR
00:06 -4.2 °C -7.6 °C 34164.7 hPa Calm     69 % 0 mm 0.0 W/m2 CLR
00:11 -4.3 °C -7.6 °C 34164.7 hPa Calm     69 % 0 mm 0.0 W/m2 CLR
00:16 -4.3 °C -7.6 °C 34164.7 hPa Calm     69 % 0 mm 0.0 W/m2 CLR
00:21 -4.2 °C -7.6 °C 34164.7 hPa Calm     69 % 0 mm 0.0 W/m2 CLR
00:26 -4.3 °C -7.6 °C 34164.7 hPa Calm     69 % 0 mm 0.0 W/m2 CLR
00:31 -4.3 °C -7.6 °C 34164.7 hPa Calm     69 % 0 mm 0.0 W/m2 CLR
00:36 -4.3 °C -7.6 °C 34178.3 hPa Calm     69 % 0 mm 0.0 W/m2 CLR
00:41 -4.3 °C -7.7 °C 34178.3 hPa Calm     69 % 0 mm 0.0 W/m2 CLR
00:46 -4.3 °C -7.6 °C 34178.3 hPa Calm     70 % 0 mm 0.0 W/m2 CLR
00:51 -4.4 °C -7.6 °C 34178.3 hPa Calm     71 % 0 mm 0.0 W/m2 CLR
00:56 -4.5 °C -7.3 °C 34178.3 hPa Calm     73 % 0 mm 0.0 W/m2 CLR
01:01 -4.6 °C -7.4 °C 34178.3 hPa Calm     73 % 0 mm 0.0 W/m2 CLR
01:06 -4.7 °C -7.4 °C 34178.3 hPa Calm     74 % 0 mm 0.0 W/m2 CLR
01:11 -4.7 °C -7.4 °C 34178.3 hPa Calm     74 % 0 mm 0.0 W/m2 CLR
01:16 -4.8 °C -7.7 °C 34188.4 hPa Calm     73 % 0 mm 0.0 W/m2 CLR
01:21 -4.9 °C -7.6 °C 34188.4 hPa Calm     74 % 0 mm 0.0 W/m2 CLR
01:26 -4.9 °C -7.7 °C 34188.4 hPa Calm     73 % 0 mm 0.0 W/m2 CLR
01:31 -4.9 °C -7.7 °C 34188.4 hPa Calm     74 % 0 mm 0.0 W/m2 CLR
01:36 -5.1 °C -7.7 °C 34188.4 hPa Calm     74 % 0 mm 0.0 W/m2 CLR
01:37 -5.1 °C -7.6 °C 34188.4 hPa Calm     75 % 0 mm 0.0 W/m2 CLR
01:42 -5.1 °C -7.7 °C 34188.4 hPa Calm     75 % 0 mm 0.0 W/m2 CLR
01:47 -5.1 °C -7.7 °C 34188.4 hPa Calm     74 % 0 mm 0.0 W/m2 CLR
01:52 -4.8 °C -7.4 °C 34198.6 hPa WSW 23.8 km/h 23.8 km/h 75 % 0 mm 0.0 W/m2 CLR
01:57 -4.7 °C -7.2 °C 34198.6 hPa WSW 17.9 km/h 17.9 km/h 76 % 0 mm 0.0 W/m2 CLR
02:02 -4.7 °C -7.2 °C 34198.6 hPa WSW 18.2 km/h 18.2 km/h 76 % 0 mm 0.0 W/m2 CLR
02:07 -4.7 °C -7.2 °C 34198.6 hPa WSW 15 km/h 15 km/h 76 % 0 mm 0.0 W/m2 CLR
02:12 -4.8 °C -7.2 °C 34198.6 hPa West 23.8 km/h 23.8 km/h 77 % 0 mm 0.0 W/m2 CLR
02:18 -4.8 °C -7.2 °C 34198.6 hPa West 32.8 km/h 32.8 km/h 77 % 0 mm 0.0 W/m2 CLR
02:23 -4.9 °C -7.3 °C 34198.6 hPa West 25.9 km/h 25.9 km/h 77 % 0 mm 0.0 W/m2 CLR
02:28 -4.9 °C -7.3 °C 34212.1 hPa WNW 23.8 km/h 23.8 km/h 77 % 0 mm 0.0 W/m2 CLR
02:33 -4.9 °C -7.3 °C 34212.1 hPa WSW 11.9 km/h 11.9 km/h 77 % 0 mm 0.0 W/m2 CLR
02:38 -4.9 °C -7.3 °C 34212.1 hPa SW 5.1 km/h 8.5 km/h 77 % 0 mm 0.0 W/m2 CLR
02:43 -4.9 °C -7.3 °C 34212.1 hPa SW 9 km/h   77 % 0 mm 0.0 W/m2 CLR
02:48 -5 °C -7.4 °C 34212.1 hPa SW 18.2 km/h 18.2 km/h 77 % 0 mm 0.0 W/m2 CLR
02:53 -5.1 °C -7.4 °C 34212.1 hPa WSW 20.9 km/h 20.9 km/h 77 % 0 mm 0.0 W/m2 CLR
02:58 -5.1 °C -7.4 °C 34212.1 hPa SW 17.9 km/h 17.9 km/h 78 % 0 mm 0.0 W/m2 CLR
03:03 -5.2 °C -7.4 °C 34212.1 hPa West 26.9 km/h 26.9 km/h 78 % 0 mm 0.0 W/m2 CLR
03:08 -5.2 °C -7.4 °C 34212.1 hPa WNW 32.8 km/h 32.8 km/h 78 % 0 mm 0.0 W/m2 CLR
03:13 -5.3 °C -7.6 °C 34212.1 hPa WNW 36.2 km/h 36.2 km/h 78 % 0 mm 0.0 W/m2 CLR
03:18 -5.3 °C -7.6 °C 34212.1 hPa West 29.8 km/h 29.8 km/h 78 % 0 mm 0.0 W/m2 CLR
03:23 -5.4 °C -7.6 °C 34212.1 hPa West 35.7 km/h 35.7 km/h 78 % 0 mm 0.0 W/m2 CLR
03:28 -5.4 °C -7.6 °C 34222.3 hPa West 41.7 km/h 41.7 km/h 78 % 0 mm 0.0 W/m2 CLR
03:33 -5.5 °C -7.7 °C 34222.3 hPa West 23.8 km/h 23.8 km/h 78 % 0 mm 0.0 W/m2 CLR
03:38 -5.5 °C -7.7 °C 34222.3 hPa West 9 km/h 9 km/h 78 % 0 mm 0.0 W/m2 CLR
03:43 -5.6 °C -7.9 °C 34222.3 hPa West 15 km/h 15 km/h 77 % 0 mm 0.0 W/m2 CLR
03:48 -5.7 °C -8 °C 34222.3 hPa Calm     77 % 0 mm 0.0 W/m2 CLR
03:53 -5.7 °C -8.2 °C 34222.3 hPa NW 29.8 km/h 29.8 km/h 76 % 0 mm 0.0 W/m2 CLR
03:58 -5.7 °C -8.2 °C 34222.3 hPa Calm     76 % 0 mm 0.0 W/m2 CLR
04:03 -5.7 °C -8.3 °C 34235.8 hPa NW 26.9 km/h 26.9 km/h 75 % 0 mm 0.0 W/m2 CLR
04:08 -5.7 °C -8.3 °C 34235.8 hPa Calm     75 % 0 mm 0.0 W/m2 CLR
04:13 -5.7 °C -8.3 °C 34235.8 hPa Calm     75 % 0 mm 0.0 W/m2 CLR
04:18 -5.7 °C -8.3 °C 34235.8 hPa Calm     75 % 0 mm 0.0 W/m2 CLR
04:23 -5.7 °C -8.3 °C 34235.8 hPa Calm     75 % 0 mm 0.0 W/m2 CLR
04:28 -5.7 °C -8.4 °C 34235.8 hPa West 17.9 km/h 17.9 km/h 74 % 0 mm 0.0 W/m2 CLR
04:33 -5.8 °C -8.4 °C 34235.8 hPa NW 9 km/h 9 km/h 74 % 0 mm 0.0 W/m2 CLR
04:38 -5.8 °C -8.5 °C 34235.8 hPa WSW 3.1 km/h 3.1 km/h 74 % 0 mm 0.0 W/m2 CLR
04:43 -5.8 °C -8.5 °C 34235.8 hPa WSW 9 km/h 9 km/h 74 % 0 mm 0.0 W/m2 CLR
04:48 -5.8 °C -8.5 °C 34235.8 hPa West 3.1 km/h   74 % 0 mm 0.0 W/m2 CLR
04:53 -5.9 °C -8.4 °C 34235.8 hPa WNW 6 km/h 6 km/h 75 % 0 mm 0.0 W/m2 CLR
04:58 -5.9 °C -8.4 °C 34246 hPa Calm     75 % 0 mm 0.0 W/m2 CLR
05:03 -5.9 °C -8.5 °C 34235.8 hPa WSW 11.9 km/h 11.9 km/h 75 % 0 mm 0.0 W/m2 CLR
05:08 -6 °C -8.6 °C 34246 hPa WSW 15 km/h 15 km/h 75 % 0 mm 0.0 W/m2 CLR
05:13 -6 °C -8.6 °C 34246 hPa Calm     75 % 0 mm 0.0 W/m2 CLR
05:18 -6.1 °C -8.7 °C 34235.8 hPa WSW 17.9 km/h 17.9 km/h 75 % 0 mm 0.0 W/m2 CLR
05:23 -6.2 °C -8.7 °C 34246 hPa WNW 23.8 km/h 23.8 km/h 75 % 0 mm 0.0 W/m2 CLR
05:28 -6.2 °C -8.9 °C 34246 hPa WNW 23.8 km/h 23.8 km/h 74 % 0 mm 0.0 W/m2 CLR
05:33 -6.2 °C -8.9 °C 34246 hPa WNW 23.8 km/h 23.8 km/h 74 % 0 mm 0.0 W/m2 CLR
05:38 -6.3 °C -8.9 °C 34246 hPa WNW 18.2 km/h 18.2 km/h 74 % 0 mm 0.0 W/m2 CLR
05:43 -6.3 °C -9.1 °C 34246 hPa West 23.8 km/h 23.8 km/h 73 % 0 mm 0.0 W/m2 CLR
05:48 -6.3 °C -8.9 °C 34246 hPa West 23.8 km/h 23.8 km/h 74 % 0 mm 0.0 W/m2 CLR
05:53 -6.3 °C -9.1 °C 34246 hPa West 15.6 km/h 15.6 km/h 73 % 0 mm 0.0 W/m2 CLR
05:58 -6.3 °C -9.1 °C 34256.2 hPa West 15 km/h 15 km/h 73 % 0 mm 0.0 W/m2 CLR
06:03 -6.4 °C -9.2 °C 34246 hPa West 20.9 km/h 20.9 km/h 73 % 0 mm 0.0 W/m2 CLR
06:04 -6.4 °C -9.2 °C 34246 hPa West 9 km/h 9 km/h 73 % 0 mm 0.0 W/m2 CLR
06:09 -6.4 °C -9.3 °C 34256.2 hPa WNW 15 km/h 15 km/h 72 % 0 mm 0.0 W/m2 CLR
06:14 -6.4 °C -9.3 °C 34256.2 hPa WNW 3.1 km/h   72 % 0 mm 0.0 W/m2 CLR
06:19 -6.5 °C -9.4 °C 34256.2 hPa West 11.9 km/h 11.9 km/h 72 % 0 mm 0.0 W/m2 CLR
06:24 -6.5 °C -9.4 °C 34256.2 hPa WNW 20.9 km/h 20.9 km/h 72 % 0 mm 0.0 W/m2 CLR
06:26 -6.5 °C -9.4 °C 34256.2 hPa West 11.9 km/h 11.9 km/h 72 % 0 mm 0.0 W/m2 CLR
06:31 -6.5 °C -9.4 °C 34269.7 hPa West 6 km/h   72 % 0 mm 0.0 W/m2 CLR
06:36 -6.5 °C -9.4 °C 34269.7 hPa Calm     72 % 0 mm 0.0 W/m2 OVC
06:41 -6.6 °C -9.4 °C 34269.7 hPa West 10.3 km/h 10.3 km/h 72 % 0 mm 0.0 W/m2 OVC
06:46 -6.6 °C -9.5 °C 34279.9 hPa Calm     72 % 0 mm 0.0 W/m2 OVC
06:51 -6.6 °C -9.5 °C 34279.9 hPa West 3.1 km/h 3.1 km/h 72 % 0 mm 5.0 W/m2 OVC
06:56 -6.6 °C -9.5 °C 34279.9 hPa WSW 11.9 km/h   72 % 0 mm 9.0 W/m2 BKN
07:01 -6.6 °C -9.5 °C 34279.9 hPa West 9 km/h 9 km/h 72 % 0 mm 12.0 W/m2 BKN
07:06 -6.6 °C -9.5 °C 34279.9 hPa Calm     72 % 0 mm 14.0 W/m2 BKN
07:11 -6.6 °C -9.5 °C 34279.9 hPa Calm     72 % 0 mm 19.0 W/m2 BKN
07:16 -6.6 °C -9.5 °C 34279.9 hPa Calm     72 % 0 mm 21.0 W/m2 BKN
07:21 -6.6 °C -9.5 °C 34279.9 hPa Calm     72 % 0 mm 25.0 W/m2 BKN
07:26 -6.6 °C -9.5 °C 34293.4 hPa WNW 11.9 km/h 11.9 km/h 72 % 0 mm 25.0 W/m2 BKN
07:31 -6.6 °C -9.6 °C 34293.4 hPa Calm     71 % 0 mm 28.0 W/m2 BKN
07:37 -6.6 °C -9.6 °C 34293.4 hPa Calm     71 % 0 mm 30.0 W/m2 BKN
07:42 -6.6 °C -9.7 °C 34293.4 hPa Calm     71 % 0 mm 32.0 W/m2 BKN
07:47 -6.6 °C -9.7 °C 34293.4 hPa Calm     71 % 0 mm 69.0 W/m2 BKN
07:52 -6.6 °C -9.6 °C 34293.4 hPa WSW 20.9 km/h 20.9 km/h 71 % 0 mm 58.0 W/m2 SCT
07:57 -6.5 °C -9.5 °C 34293.4 hPa WSW 15 km/h 15 km/h 71 % 0 mm 113.0 W/m2 FEW
08:02 -6.4 °C -9.6 °C 34293.4 hPa West 11.9 km/h 11.9 km/h 70 % 0 mm 125.0 W/m2 CLR
08:07 -6.3 °C -9.4 °C 34303.6 hPa West 9 km/h 9 km/h 70 % 0 mm 144.0 W/m2 CLR
08:12 -6.2 °C -9.5 °C 34303.6 hPa WNW 12.9 km/h 12.9 km/h 69 % 0 mm 162.0 W/m2 CLR
08:17 -6.2 °C -9.6 °C 34303.6 hPa NW 15.6 km/h 15.6 km/h 68 % 0 mm 176.0 W/m2 CLR
08:22 -6.1 °C -9.5 °C 34303.6 hPa WNW 31.1 km/h 31.1 km/h 68 % 0 mm 197.0 W/m2 CLR
08:27 -6.1 °C -9.5 °C 34303.6 hPa West 25.9 km/h 25.9 km/h 68 % 0 mm 207.0 W/m2 CLR
08:32 -6.1 °C -9.3 °C 34303.6 hPa NW 15.6 km/h 15.6 km/h 69 % 0 mm 241.0 W/m2 CLR
08:37 -5.9 °C -9.4 °C 34303.6 hPa West 38.8 km/h 38.8 km/h 68 % 0 mm 274.0 W/m2 CLR
08:42 -5.9 °C -9.3 °C 34303.6 hPa WNW 29.8 km/h 29.8 km/h 68 % 0 mm 283.0 W/m2 CLR
08:47 -5.8 °C -9.3 °C 34303.6 hPa WNW 47.6 km/h 47.6 km/h 68 % 0 mm 308.0 W/m2 CLR
08:52 -5.8 °C -9.4 °C 34303.6 hPa NW 35.7 km/h 35.7 km/h 67 % 0 mm 323.0 W/m2 CLR
08:57 -5.9 °C -9.4 °C 34303.6 hPa NW 41.7 km/h 41.7 km/h 67 % 0 mm 330.0 W/m2 CLR
09:02 -5.9 °C -9.3 °C 34303.6 hPa WNW 29.8 km/h 29.8 km/h 68 % 0 mm 174.0 W/m2 CLR
09:07 -5.8 °C -9.3 °C 34303.6 hPa WNW 35.7 km/h 35.7 km/h 68 % 0 mm 327.0 W/m2 CLR
09:12 -5.8 °C -9.3 °C 34303.6 hPa WNW 29.8 km/h 29.8 km/h 67 % 0 mm 269.0 W/m2 CLR
09:17 -5.8 °C -9.3 °C 34313.7 hPa NW 15 km/h 15 km/h 67 % 0 mm 367.0 W/m2 CLR
09:22 -5.7 °C -9.3 °C 34313.7 hPa West 25.9 km/h 25.9 km/h 66 % 0 mm 385.0 W/m2 CLR
09:27 -5.7 °C -9.3 °C 34313.7 hPa West 29.8 km/h 29.8 km/h 66 % 0 mm 367.0 W/m2 CLR
09:32 -5.6 °C -9.3 °C 34313.7 hPa WNW 17.9 km/h 17.9 km/h 66 % 0 mm 415.0 W/m2 CLR
09:37 -5.5 °C -9.3 °C 34313.7 hPa WSW 23.8 km/h 23.8 km/h 65 % 0 mm 427.0 W/m2 CLR
09:42 -5.4 °C -9.1 °C 34313.7 hPa NW 23.8 km/h 23.8 km/h 66 % 0 mm 439.0 W/m2 CLR
09:47 -5.2 °C -9.1 °C 34313.7 hPa NW 17.9 km/h 17.9 km/h 65 % 0 mm 452.0 W/m2 CLR
09:52 -5.2 °C -9.1 °C 34313.7 hPa WSW 20.9 km/h 20.9 km/h 64 % 0 mm 469.0 W/m2 CLR
09:57 -5.1 °C -9.2 °C 34303.6 hPa WNW 23.8 km/h 23.8 km/h 63 % 0 mm 483.0 W/m2 CLR
10:02 -5.1 °C -9.2 °C 34303.6 hPa WNW 26.9 km/h 26.9 km/h 63 % 0 mm 497.0 W/m2 CLR
10:07 -4.9 °C -9.1 °C 34303.6 hPa WNW 23.8 km/h 23.8 km/h 63 % 0 mm 515.0 W/m2 CLR
10:12 -4.9 °C -9.1 °C 34303.6 hPa West 17.9 km/h 17.9 km/h 63 % 0 mm 526.0 W/m2 CLR
10:17 -5 °C -9.1 °C 34303.6 hPa NW 29.8 km/h 29.8 km/h 63 % 0 mm 545.0 W/m2 CLR
10:23 -4.9 °C -9.1 °C 34303.6 hPa NW 12.9 km/h 12.9 km/h 63 % 0 mm 557.0 W/m2 CLR
10:28 -4.9 °C -9 °C 34303.6 hPa NW 10.3 km/h 10.3 km/h 63 % 0 mm 566.0 W/m2 CLR
10:33 -4.6 °C -8.9 °C 34303.6 hPa WSW 11.9 km/h 11.9 km/h 62 % 0 mm 587.0 W/m2 CLR
10:38 -4.6 °C -9 °C 34303.6 hPa WNW 26.9 km/h 26.9 km/h 61 % 0 mm 598.0 W/m2 CLR
10:43 -4.5 °C -8.9 °C 34303.6 hPa WNW 20.9 km/h   61 % 0 mm 613.0 W/m2 CLR
10:48 -4.4 °C -8.8 °C 34303.6 hPa West 23.8 km/h 23.8 km/h 61 % 0 mm 626.0 W/m2 CLR
10:53 -4.3 °C -8.9 °C 34303.6 hPa NW 23.8 km/h 23.8 km/h 60 % 0 mm 638.0 W/m2 CLR
10:58 -4.2 °C -8.8 °C 34303.6 hPa NW 26.9 km/h 26.9 km/h 60 % 0 mm 700.0 W/m2 CLR
11:03 -4.1 °C -8.8 °C 34293.4 hPa NW 23.8 km/h 23.8 km/h 59 % 0 mm 202.0 W/m2 CLR
11:08 -4.1 °C -8.8 °C 34293.4 hPa West 15.6 km/h 15.6 km/h 59 % 0 mm 802.0 W/m2 CLR
11:13 -4.1 °C -8.7 °C 34293.4 hPa NW 23.8 km/h 23.8 km/h 60 % 0 mm 225.0 W/m2 CLR
11:18 -4.2 °C -8.8 °C 34293.4 hPa West 23.8 km/h 23.8 km/h 60 % 0 mm 186.0 W/m2 CLR
11:23 -4.2 °C -8.7 °C 34293.4 hPa West 20.9 km/h 20.9 km/h 61 % 0 mm 777.0 W/m2 CLR
11:28 -4.1 °C -8.5 °C 34293.4 hPa West 20.9 km/h 20.9 km/h 61 % 0 mm 773.0 W/m2 CLR
11:33 -3.8 °C -8.6 °C 34293.4 hPa Calm     59 % 0 mm 759.0 W/m2 CLR
11:38 -3.6 °C -8.4 °C 34293.4 hPa WSW 12.9 km/h 12.9 km/h 59 % 0 mm 642.0 W/m2 CLR
11:43 -3.6 °C -8.5 °C 34279.9 hPa West 20.9 km/h 20.9 km/h 58 % 0 mm 842.0 W/m2 CLR
11:48 -3.4 °C -8.4 °C 34279.9 hPa NNW 17.9 km/h 17.9 km/h 58 % 0 mm 817.0 W/m2 CLR
11:53 -3.3 °C -8.4 °C 34293.4 hPa SSW 23.8 km/h 23.8 km/h 57 % 0 mm 805.0 W/m2 CLR
11:58 -3.1 °C -8.3 °C 34279.9 hPa West 29.8 km/h 29.8 km/h 56 % 0 mm 763.0 W/m2 CLR
12:03 -3 °C -8.4 °C 34279.9 hPa West 6 km/h   55 % 0 mm 800.0 W/m2 CLR
12:08 -3 °C -8.4 °C 34279.9 hPa SW 17.9 km/h 17.9 km/h 55 % 0 mm 807.0 W/m2 CLR
12:13 -2.9 °C -8.5 °C 34279.9 hPa Calm     54 % 0 mm 816.0 W/m2 CLR
12:18 -2.8 °C -8.6 °C 34279.9 hPa West 15 km/h 15 km/h 53 % 0 mm 816.0 W/m2 CLR
12:23 -2.8 °C -8.4 °C 34279.9 hPa Calm     54 % 0 mm 828.0 W/m2 CLR
12:28 -2.6 °C -8.4 °C 34279.9 hPa Calm     53 % 0 mm 837.0 W/m2 CLR
12:33 -2.3 °C -8.3 °C 34279.9 hPa North 23.8 km/h 23.8 km/h 52 % 0 mm 844.0 W/m2 CLR
12:38 -2.3 °C -8.3 °C 34279.9 hPa NW 11.9 km/h 11.9 km/h 52 % 0 mm 867.0 W/m2 CLR
12:43 -2.3 °C -8.2 °C 34279.9 hPa West 11.9 km/h 11.9 km/h 52 % 0 mm 900.0 W/m2 CLR
12:48 -2.2 °C -8.4 °C 34279.9 hPa NW 17.9 km/h 17.9 km/h 51 % 0 mm 898.0 W/m2 CLR
12:53 -2.3 °C -8.4 °C 34279.9 hPa Calm     51 % 0 mm 821.0 W/m2 CLR
12:58 -2.3 °C -8.4 °C 34279.9 hPa Calm     51 % 0 mm 388.0 W/m2 CLR
13:03 -2.3 °C -8.4 °C 34269.7 hPa Calm     51 % 0 mm 977.0 W/m2 CLR
13:08 -2.2 °C -8.2 °C 34269.7 hPa Calm     52 % 0 mm 988.0 W/m2 CLR
13:13 -1.8 °C -8 °C 34269.7 hPa Calm     51 % 0 mm 1030.0 W/m2 CLR
13:18 -1.7 °C -8.3 °C 34269.7 hPa NNW 17.9 km/h 17.9 km/h 49 % 0 mm 573.0 W/m2 CLR
13:23 -1.9 °C -8.3 °C 34269.7 hPa Calm     50 % 0 mm 956.0 W/m2 CLR
13:28 -2 °C -8.4 °C 34269.7 hPa SSE 3.1 km/h 3.1 km/h 50 % 0 mm 935.0 W/m2 CLR
13:33 -1.9 °C -8.1 °C 34256.2 hPa North 7.7 km/h 7.7 km/h 51 % 0 mm 937.0 W/m2 CLR
13:38 -1.8 °C -8.3 °C 34256.2 hPa Calm     49 % 0 mm 979.0 W/m2 CLR
13:43 -1.8 °C -8.2 °C 34256.2 hPa ENE 17.9 km/h 17.9 km/h 50 % 0 mm 209.0 W/m2 CLR
13:48 -1.9 °C -8.3 °C 34256.2 hPa ENE 6 km/h   50 % 0 mm 937.0 W/m2 CLR
13:53 -1.8 °C -8.2 °C 34256.2 hPa Calm   0.5 km/h 50 % 0 mm 953.0 W/m2 CLR
13:58 -1.7 °C -8.2 °C 34256.2 hPa ENE 11.9 km/h 11.9 km/h 49 % 0 mm 974.0 W/m2 CLR
14:03 -1.5 °C -8.2 °C 34246 hPa NNE 15 km/h   48 % 0 mm 276.0 W/m2 CLR
14:08 -1.5 °C -8.3 °C 34246 hPa East 17.9 km/h 17.9 km/h 48 % 0 mm 960.0 W/m2 CLR
14:09 -1.5 °C -8.3 °C 34246 hPa ESE 11.9 km/h   48 % 0 mm 960.0 W/m2 CLR
14:14 -1.5 °C -8.2 °C 34246 hPa East 3.1 km/h 3.1 km/h 48 % 0 mm 921.0 W/m2 CLR
14:19 -1.4 °C -8.2 °C 34246 hPa Calm     48 % 0 mm 926.0 W/m2 CLR
14:24 -1.2 °C -8.2 °C 34246 hPa NE 9 km/h 9 km/h 47 % 0 mm 976.0 W/m2 CLR
14:29 -1.1 °C -8.2 °C 34235.8 hPa Calm     46 % 0 mm 976.0 W/m2 CLR
14:34 -0.9 °C -8.1 °C 34235.8 hPa Calm     46 % 0 mm 916.0 W/m2 CLR
14:35 -0.9 °C -8.3 °C 34235.8 hPa Calm     45 % 0 mm 921.0 W/m2 CLR
14:40 -0.9 °C -8.2 °C 34235.8 hPa Calm   3.1 km/h 45 % 0 mm 972.0 W/m2 CLR
14:45 -0.9 °C -8.2 °C 34235.8 hPa NE 23.8 km/h 23.8 km/h 45 % 0 mm 993.0 W/m2 CLR
14:50 -0.9 °C -8.2 °C 34222.3 hPa Calm     45 % 0 mm 1042.0 W/m2 CLR
14:56 -0.9 °C -8.2 °C 34222.3 hPa ENE 3.1 km/h   45 % 0 mm 1039.0 W/m2 CLR
15:01 -0.9 °C -8.4 °C 34222.3 hPa Calm     44 % 0 mm 972.0 W/m2 CLR
15:06 -0.8 °C -8.2 °C 34222.3 hPa Calm     45 % 0 mm 928.0 W/m2 CLR
15:11 -0.8 °C -8.2 °C 34212.1 hPa NNE 3.1 km/h 6.3 km/h 45 % 0 mm 912.0 W/m2 CLR
15:16 -0.6 °C -7.8 °C 34212.1 hPa ENE 20.9 km/h 20.9 km/h 46 % 0 mm 889.0 W/m2 CLR
15:21 -0.7 °C -8.1 °C 34212.1 hPa NNE 33.6 km/h 33.6 km/h 45 % 0 mm 870.0 W/m2 CLR
15:26 -0.7 °C -8.1 °C 34212.1 hPa NE 23.8 km/h 23.8 km/h 45 % 0 mm 921.0 W/m2 CLR
15:31 -0.7 °C -8.1 °C 34212.1 hPa ENE 12.9 km/h 12.9 km/h 45 % 0 mm 879.0 W/m2 CLR
15:36 -0.7 °C -8.1 °C 34212.1 hPa ENE 29.8 km/h 29.8 km/h 45 % 0 mm 174.0 W/m2 CLR
15:41 -0.8 °C -8.2 °C 34212.1 hPa North 32.8 km/h 32.8 km/h 45 % 0 mm 837.0 W/m2 CLR
15:46 -0.9 °C -8.1 °C 34212.1 hPa Calm     46 % 0 mm 888.0 W/m2 CLR
15:51 -0.9 °C -8.1 °C 34198.6 hPa ENE 18.2 km/h 18.2 km/h 46 % 0 mm 854.0 W/m2 CLR
15:56 -0.7 °C -8.1 °C 34198.6 hPa NNE 20.9 km/h 20.9 km/h 45 % 0 mm 842.0 W/m2 CLR
16:01 -0.4 °C -8.1 °C 34198.6 hPa NE 31.1 km/h 31.1 km/h 44 % 0 mm 817.0 W/m2 CLR
16:06 -0.4 °C -8.1 °C 34198.6 hPa ENE 11.9 km/h 11.9 km/h 44 % 0 mm 819.0 W/m2 CLR
16:11 -0.7 °C -8.3 °C 34198.6 hPa NNE 17.9 km/h 17.9 km/h 44 % 0 mm 153.0 W/m2 CLR
16:16 -0.7 °C -8.1 °C 34198.6 hPa East 17.9 km/h 17.9 km/h 45 % 0 mm 793.0 W/m2 CLR
16:21 -0.7 °C -8.1 °C 34188.4 hPa NNE 15 km/h 15 km/h 45 % 0 mm 784.0 W/m2 CLR
16:26 -0.6 °C -8.4 °C 34188.4 hPa ENE 11.9 km/h 11.9 km/h 43 % 0 mm 775.0 W/m2 CLR
16:31 -0.6 °C -8.4 °C 34198.6 hPa North 9 km/h 9 km/h 43 % 0 mm 759.0 W/m2 CLR
16:36 -0.4 °C -8.2 °C 34188.4 hPa North 17.9 km/h 17.9 km/h 43 % 0 mm 763.0 W/m2 CLR
16:41 -0.4 °C -8.4 °C 34188.4 hPa NNW 23.8 km/h 23.8 km/h 42 % 0 mm 754.0 W/m2 CLR
16:46 -0.3 °C -8.5 °C 34188.4 hPa North 17.9 km/h 17.9 km/h 41 % 0 mm 749.0 W/m2 CLR
16:51 0.1 °C -8.2 °C 34188.4 hPa ENE 9 km/h 9 km/h 41 % 0 mm 733.0 W/m2 CLR
16:56 0.1 °C -8.7 °C 34178.3 hPa Calm     39 % 0 mm 717.0 W/m2 CLR
17:01 0 °C -8.7 °C 34178.3 hPa SW 6 km/h 6 km/h 39 % 0 mm 712.0 W/m2 CLR
17:06 0 °C -8.9 °C 34178.3 hPa WSW 3.1 km/h 3.1 km/h 38 % 0 mm 694.0 W/m2 CLR
17:11 0.2 °C -9.1 °C 34164.7 hPa West 3.1 km/h   37 % 0 mm 671.0 W/m2 CLR
17:16 0.2 °C -9 °C 34164.7 hPa SW 11.9 km/h 11.9 km/h 37 % 0 mm 666.0 W/m2 CLR
17:21 0.3 °C -9.2 °C 34164.7 hPa WNW 6 km/h 6 km/h 36 % 0 mm 656.0 W/m2 CLR
17:26 0.3 °C -9.1 °C 34164.7 hPa North 9 km/h 9 km/h 36 % 0 mm 645.0 W/m2 CLR
17:31 0.3 °C -9.2 °C 34164.7 hPa NNE 9 km/h 9 km/h 36 % 0 mm 633.0 W/m2 CLR
17:36 0.2 °C -9 °C 34164.7 hPa NE 12.9 km/h 12.9 km/h 37 % 0 mm 621.0 W/m2 CLR
17:41 0.2 °C -9 °C 34154.6 hPa Calm     37 % 0 mm 610.0 W/m2 CLR
17:46 0.2 °C -8.8 °C 34154.6 hPa East 26.9 km/h 26.9 km/h 38 % 0 mm 598.0 W/m2 CLR
17:51 0.1 °C -8.8 °C 34154.6 hPa ENE 32.8 km/h 32.8 km/h 38 % 0 mm 580.0 W/m2 CLR
17:56 0.1 °C -9.1 °C 34154.6 hPa NE 15 km/h 15 km/h 37 % 0 mm 564.0 W/m2 CLR
18:01 0.2 °C -9.3 °C 34154.6 hPa NE 29.8 km/h 29.8 km/h 36 % 0 mm 534.0 W/m2 CLR
18:06 0.2 °C -9.5 °C 34154.6 hPa ENE 23.8 km/h 23.8 km/h 35 % 0 mm 545.0 W/m2 CLR
18:11 0.2 °C -9.8 °C 34154.6 hPa NNE 17.9 km/h 17.9 km/h 34 % 0 mm 520.0 W/m2 CLR
18:16 0.2 °C -9.7 °C 34154.6 hPa North 9 km/h 9 km/h 34 % 0 mm 519.0 W/m2 CLR
18:21 0.1 °C -8.2 °C 34154.6 hPa ESE 26.9 km/h 26.9 km/h 41 % 0 mm 494.0 W/m2 CLR
18:26 -0.3 °C -8.2 °C 34154.6 hPa East 12.9 km/h 12.9 km/h 43 % 0 mm 496.0 W/m2 CLR
18:31 -0.4 °C -8 °C 34154.6 hPa SE 29.8 km/h 29.8 km/h 44 % 0 mm 457.0 W/m2 CLR
18:36 -0.5 °C -8.1 °C 34154.6 hPa East 29.8 km/h 29.8 km/h 44 % 0 mm 434.0 W/m2 CLR
18:41 -0.6 °C -8.4 °C 34154.6 hPa ESE 20.9 km/h 20.9 km/h 43 % 0 mm 415.0 W/m2 CLR
18:42 -0.6 °C -8.4 °C 34154.6 hPa SE 20.9 km/h 21.2 km/h 43 % 0 mm 415.0 W/m2 CLR
18:47 -0.7 °C -8.4 °C 34144.4 hPa ESE 17.9 km/h 17.9 km/h 43 % 0 mm 258.0 W/m2 CLR
18:52 -0.7 °C -8.4 °C 34154.6 hPa ENE 9 km/h   43 % 0 mm 172.0 W/m2 CLR
18:57 -0.6 °C -8.6 °C 34144.4 hPa ESE 3.1 km/h   42 % 0 mm 369.0 W/m2 CLR
19:02 -0.5 °C -8.3 °C 34144.4 hPa Calm     43 % 0 mm 373.0 W/m2 CLR
19:07 -0.5 °C -8.3 °C 34144.4 hPa ESE 6 km/h 8 km/h 43 % 0 mm 148.0 W/m2 CLR
19:12 -0.6 °C -8.2 °C 34144.4 hPa SE 15 km/h 15 km/h 44 % 0 mm 135.0 W/m2 CLR
19:17 -0.8 °C -8.2 °C 34144.4 hPa SE 12.9 km/h 12.9 km/h 45 % 0 mm 132.0 W/m2 CLR
19:22 -0.9 °C -8.2 °C 34144.4 hPa SE 23.8 km/h 23.8 km/h 45 % 0 mm 214.0 W/m2 CLR
19:27 -0.9 °C -8.1 °C 34144.4 hPa SE 35.7 km/h 35.7 km/h 46 % 0 mm 105.0 W/m2 CLR
19:32 -1 °C -8 °C 34144.4 hPa SE 23.3 km/h 23.3 km/h 47 % 0 mm 93.0 W/m2 CLR
19:37 -1.2 °C -8.1 °C 34144.4 hPa SE 29.8 km/h 29.8 km/h 47 % 0 mm 84.0 W/m2 CLR
19:42 -1.2 °C -7.9 °C 34154.6 hPa ESE 29.8 km/h 29.8 km/h 48 % 0 mm 88.0 W/m2 CLR
19:47 -1.2 °C -7.8 °C 34144.4 hPa ESE 32.8 km/h 32.8 km/h 49 % 0 mm 102.0 W/m2 CLR
19:52 -1.3 °C -7.7 °C 34154.6 hPa ESE 23.8 km/h 23.8 km/h 50 % 0 mm 104.0 W/m2 CLR
19:57 -1.4 °C -7.8 °C 34154.6 hPa East 26.9 km/h 26.9 km/h 50 % 0 mm 95.0 W/m2 CLR
20:02 -1.5 °C -7.9 °C 34154.6 hPa East 29.8 km/h 29.8 km/h 50 % 0 mm 90.0 W/m2 CLR
20:07 -1.5 °C -7.9 °C 34154.6 hPa ESE 20.9 km/h 20.9 km/h 50 % 0 mm 91.0 W/m2 CLR
20:12 -1.5 °C -7.9 °C 34154.6 hPa ESE 17.9 km/h 17.9 km/h 50 % 0 mm 84.0 W/m2 CLR
20:17 -1.6 °C -7.7 °C 34154.6 hPa SE 11.9 km/h 11.9 km/h 51 % 0 mm 83.0 W/m2 CLR
20:22 -1.6 °C -7.7 °C 34154.6 hPa SE 23.8 km/h 23.8 km/h 51 % 0 mm 88.0 W/m2 FEW
20:27 -1.6 °C -7.6 °C 34154.6 hPa ESE 23.8 km/h 23.8 km/h 52 % 0 mm 100.0 W/m2 CLR
20:32 -1.6 °C -7.7 °C 34154.6 hPa SE 17.9 km/h 17.9 km/h 52 % 0 mm 95.0 W/m2 CLR
20:37 -1.7 °C -7.7 °C 34154.6 hPa ESE 29.8 km/h 29.8 km/h 52 % 0 mm 86.0 W/m2 CLR
20:42 -1.7 °C -7.7 °C 34154.6 hPa ESE 20.8 km/h 20.8 km/h 52 % 0 mm 74.0 W/m2 FEW
20:47 -1.8 °C -7.8 °C 34154.6 hPa ESE 23.8 km/h 23.8 km/h 52 % 0 mm 69.0 W/m2 FEW
20:52 -1.8 °C -7.8 °C 34154.6 hPa ESE 26.9 km/h 26.9 km/h 52 % 0 mm 65.0 W/m2 FEW
20:57 -1.8 °C -7.8 °C 34154.6 hPa SE 20.9 km/h 20.9 km/h 52 % 0 mm 53.0 W/m2 SCT
21:02 -1.8 °C -7.7 °C 34164.7 hPa ESE 15 km/h 15 km/h 53 % 0 mm 40.0 W/m2 BKN
21:07 -1.9 °C -7.9 °C 34164.7 hPa SE 20.9 km/h 20.9 km/h 52 % 0 mm 32.0 W/m2 BKN
21:12 -1.9 °C -7.9 °C 34164.7 hPa ESE 15.6 km/h 15.6 km/h 52 % 0 mm 25.0 W/m2 BKN
21:17 -1.9 °C -7.9 °C 34164.7 hPa SE 11.9 km/h 11.9 km/h 52 % 0 mm 18.0 W/m2 BKN
21:22 -1.9 °C -7.9 °C 34164.7 hPa SSE 11.9 km/h 11.9 km/h 52 % 0 mm 9.0 W/m2 BKN
21:27 -1.9 °C -7.7 °C 34178.3 hPa SSE 6 km/h 6 km/h 53 % 0 mm 0.0 W/m2 OVC
21:32 -1.9 °C -7.8 °C 34164.7 hPa SSE 20.9 km/h 20.9 km/h 53 % 0 mm 7.0 W/m2 OVC
21:37 -2 °C -7.8 °C 34164.7 hPa SSE 15 km/h 15 km/h 53 % 0 mm 0.0 W/m2 OVC
21:42 -2.1 °C -7.9 °C 34164.7 hPa Calm     53 % 0 mm 0.0 W/m2 CLR
21:47 -2.1 °C -7.8 °C 34178.3 hPa SSE 11.9 km/h 11.9 km/h 54 % 0 mm 0.0 W/m2 CLR
21:52 -2.2 °C -7.8 °C 34178.3 hPa SE 15.6 km/h 15.6 km/h 54 % 0 mm 0.0 W/m2 CLR
21:57 -2.3 °C -7.6 °C 34178.3 hPa Calm     56 % 0 mm 0.0 W/m2 CLR
22:02 -2.4 °C -7.6 °C 34178.3 hPa Calm     57 % 0 mm 0.0 W/m2 CLR
22:07 -2.6 °C -7.4 °C 34178.3 hPa Calm     59 % 0 mm 0.0 W/m2 CLR
22:12 -2.7 °C -7.4 °C 34188.4 hPa ESE 15 km/h 15 km/h 60 % 0 mm 0.0 W/m2 CLR
22:17 -2.9 °C -7.3 °C 34188.4 hPa SE 9 km/h 9 km/h 62 % 0 mm 0.0 W/m2 CLR
22:22 -3 °C -7.2 °C 34188.4 hPa ESE 17.9 km/h 17.9 km/h 63 % 0 mm 0.0 W/m2 CLR
22:27 -3.1 °C -7.3 °C 34188.4 hPa ESE 9 km/h 9 km/h 63 % 0 mm 0.0 W/m2 CLR
22:32 -3.2 °C -7.3 °C 34198.6 hPa ESE 6 km/h 6 km/h 64 % 0 mm 0.0 W/m2 CLR
22:37 -3.3 °C -7.2 °C 34198.6 hPa East 6 km/h 6 km/h 65 % 0 mm 0.0 W/m2 CLR
22:42 -3.4 °C -7.2 °C 34198.6 hPa SE 9 km/h 9 km/h 66 % 0 mm 0.0 W/m2 CLR
22:47 -3.4 °C -7.2 °C 34198.6 hPa SE 9 km/h 9 km/h 66 % 0 mm 0.0 W/m2 CLR
22:52 -3.5 °C -7.3 °C 34212.1 hPa ESE 15 km/h 15 km/h 66 % 0 mm 0.0 W/m2 CLR
22:57 -3.4 °C -7.6 °C 34212.1 hPa SE 15 km/h 15 km/h 64 % 0 mm 0.0 W/m2 CLR
23:02 -3.4 °C -7.5 °C 34198.6 hPa SE 11.9 km/h 11.9 km/h 64 % 0 mm 0.0 W/m2 CLR
23:07 -3.4 °C -7.5 °C 34212.1 hPa SSE 11.9 km/h 11.9 km/h 64 % 0 mm 0.0 W/m2 CLR
23:12 -3.4 °C -7.5 °C 34212.1 hPa South 12.9 km/h 12.9 km/h 64 % 0 mm 0.0 W/m2 CLR
23:17 -3.4 °C -7.3 °C 34212.1 hPa South 23.8 km/h 23.8 km/h 65 % 0 mm 0.0 W/m2 CLR
23:22 -3.5 °C -7.4 °C 34212.1 hPa South 15 km/h 15 km/h 65 % 0 mm 0.0 W/m2 CLR
23:27 -3.5 °C -7.4 °C 34212.1 hPa SSE 26.9 km/h 26.9 km/h 65 % 0 mm 0.0 W/m2 CLR
23:32 -3.6 °C -7.5 °C 34222.3 hPa SSE 29.8 km/h 29.8 km/h 65 % 0 mm 0.0 W/m2 CLR
23:37 -3.6 °C -7.4 °C 34222.3 hPa SSE 15 km/h 15 km/h 66 % 0 mm 0.0 W/m2 CLR
23:42 -3.6 °C -7.4 °C 34222.3 hPa SW 9 km/h   66 % 0 mm 0.0 W/m2 CLR
23:47 -3.7 °C -7.8 °C 34222.3 hPa SW 17.9 km/h 17.9 km/h 63 % 0 mm 0.0 W/m2 CLR
23:52 -3.7 °C -8.6 °C 34222.3 hPa NW 23.8 km/h 23.8 km/h 58 % 0 mm 0.0 W/m2 CLR
23:57 -3.8 °C -9.1 °C 34222.3 hPa North 20.9 km/h 20.9 km/h 55 % 0 mm 0.0 W/m2 CLR
Lo Temps de Massalio
Compliments of Weather Underground - 1.25 mb